sensor_id;sensor_type;location;lat;lon;timestamp;P1;durP1;ratioP1;P2;durP2;ratioP2
48207;SDS011;33997;53.278;9.708;2023-10-08T00:02:26;10.15;;;4.45;;
48207;SDS011;33997;53.278;9.708;2023-10-08T00:04:52;15.98;;;5.43;;
48207;SDS011;33997;53.278;9.708;2023-10-08T00:07:19;14.95;;;5.00;;
48207;SDS011;33997;53.278;9.708;2023-10-08T00:09:52;17.92;;;5.60;;
48207;SDS011;33997;53.278;9.708;2023-10-08T00:12:18;12.75;;;5.18;;
48207;SDS011;33997;53.278;9.708;2023-10-08T00:14:45;15.52;;;5.53;;
48207;SDS011;33997;53.278;9.708;2023-10-08T00:17:14;11.63;;;5.47;;
48207;SDS011;33997;53.278;9.708;2023-10-08T00:19:41;13.85;;;5.53;;
48207;SDS011;33997;53.278;9.708;2023-10-08T00:22:09;12.93;;;5.43;;
48207;SDS011;33997;53.278;9.708;2023-10-08T00:24:35;16.98;;;5.85;;
48207;SDS011;33997;53.278;9.708;2023-10-08T00:27:05;13.33;;;5.70;;
48207;SDS011;33997;53.278;9.708;2023-10-08T00:29:31;15.80;;;6.03;;
48207;SDS011;33997;53.278;9.708;2023-10-08T00:31:57;18.23;;;6.07;;
48207;SDS011;33997;53.278;9.708;2023-10-08T00:34:23;17.63;;;5.90;;
48207;SDS011;33997;53.278;9.708;2023-10-08T00:36:50;16.00;;;5.22;;
48207;SDS011;33997;53.278;9.708;2023-10-08T00:39:16;13.55;;;4.95;;
48207;SDS011;33997;53.278;9.708;2023-10-08T00:41:47;13.77;;;5.63;;
48207;SDS011;33997;53.278;9.708;2023-10-08T00:44:23;14.48;;;5.32;;
48207;SDS011;33997;53.278;9.708;2023-10-08T00:46:54;17.73;;;4.97;;
48207;SDS011;33997;53.278;9.708;2023-10-08T00:49:26;16.98;;;5.07;;
48207;SDS011;33997;53.278;9.708;2023-10-08T00:52:13;15.00;;;4.95;;
48207;SDS011;33997;53.278;9.708;2023-10-08T00:54:40;18.23;;;5.03;;
48207;SDS011;33997;53.278;9.708;2023-10-08T00:57:26;16.05;;;5.47;;
48207;SDS011;33997;53.278;9.708;2023-10-08T00:59:54;12.75;;;4.75;;
48207;SDS011;33997;53.278;9.708;2023-10-08T01:02:21;16.60;;;4.93;;
48207;SDS011;33997;53.278;9.708;2023-10-08T01:04:51;11.20;;;5.00;;
48207;SDS011;33997;53.278;9.708;2023-10-08T01:07:16;15.60;;;4.97;;
48207;SDS011;33997;53.278;9.708;2023-10-08T01:09:44;12.02;;;5.00;;
48207;SDS011;33997;53.278;9.708;2023-10-08T01:12:16;11.25;;;3.78;;
48207;SDS011;33997;53.278;9.708;2023-10-08T01:14:44;11.45;;;4.65;;
48207;SDS011;33997;53.278;9.708;2023-10-08T01:17:11;14.55;;;5.03;;
48207;SDS011;33997;53.278;9.708;2023-10-08T01:19:44;10.95;;;4.65;;
48207;SDS011;33997;53.278;9.708;2023-10-08T01:22:15;11.77;;;4.88;;
48207;SDS011;33997;53.278;9.708;2023-10-08T01:24:43;10.95;;;4.20;;
48207;SDS011;33997;53.278;9.708;2023-10-08T01:27:10;11.68;;;4.30;;
48207;SDS011;33997;53.278;9.708;2023-10-08T01:29:38;15.50;;;5.10;;
48207;SDS011;33997;53.278;9.708;2023-10-08T01:32:04;12.98;;;4.43;;
48207;SDS011;33997;53.278;9.708;2023-10-08T01:34:36;12.75;;;4.65;;
48207;SDS011;33997;53.278;9.708;2023-10-08T01:37:02;13.60;;;4.72;;
48207;SDS011;33997;53.278;9.708;2023-10-08T01:39:34;15.80;;;4.60;;
48207;SDS011;33997;53.278;9.708;2023-10-08T01:42:01;15.35;;;4.63;;
48207;SDS011;33997;53.278;9.708;2023-10-08T01:44:26;18.50;;;4.97;;
48207;SDS011;33997;53.278;9.708;2023-10-08T01:46:54;20.15;;;4.65;;
48207;SDS011;33997;53.278;9.708;2023-10-08T01:49:23;17.20;;;4.40;;
48207;SDS011;33997;53.278;9.708;2023-10-08T01:54:19;12.13;;;4.50;;
48207;SDS011;33997;53.278;9.708;2023-10-08T01:56:46;14.80;;;5.07;;
48207;SDS011;33997;53.278;9.708;2023-10-08T01:59:13;15.80;;;5.43;;
48207;SDS011;33997;53.278;9.708;2023-10-08T02:01:40;18.63;;;4.80;;
48207;SDS011;33997;53.278;9.708;2023-10-08T02:04:07;14.98;;;5.38;;
48207;SDS011;33997;53.278;9.708;2023-10-08T02:06:34;17.60;;;5.95;;
48207;SDS011;33997;53.278;9.708;2023-10-08T02:09:00;11.88;;;5.35;;
48207;SDS011;33997;53.278;9.708;2023-10-08T02:11:46;17.85;;;6.13;;
48207;SDS011;33997;53.278;9.708;2023-10-08T02:14:15;15.57;;;5.97;;
48207;SDS011;33997;53.278;9.708;2023-10-08T02:16:42;18.50;;;6.13;;
48207;SDS011;33997;53.278;9.708;2023-10-08T02:19:09;17.83;;;6.68;;
48207;SDS011;33997;53.278;9.708;2023-10-08T02:21:35;18.90;;;7.05;;
48207;SDS011;33997;53.278;9.708;2023-10-08T02:24:05;24.10;;;6.65;;
48207;SDS011;33997;53.278;9.708;2023-10-08T02:26:32;16.35;;;6.85;;
48207;SDS011;33997;53.278;9.708;2023-10-08T02:28:59;23.75;;;6.82;;
48207;SDS011;33997;53.278;9.708;2023-10-08T02:31:25;22.15;;;6.50;;
48207;SDS011;33997;53.278;9.708;2023-10-08T02:33:51;23.23;;;6.43;;
48207;SDS011;33997;53.278;9.708;2023-10-08T02:36:16;21.52;;;6.68;;
48207;SDS011;33997;53.278;9.708;2023-10-08T02:38:41;19.33;;;6.75;;
48207;SDS011;33997;53.278;9.708;2023-10-08T02:41:07;16.42;;;5.68;;
48207;SDS011;33997;53.278;9.708;2023-10-08T02:43:33;15.43;;;5.55;;
48207;SDS011;33997;53.278;9.708;2023-10-08T02:46:07;19.17;;;6.65;;
48207;SDS011;33997;53.278;9.708;2023-10-08T02:48:35;19.05;;;6.38;;
48207;SDS011;33997;53.278;9.708;2023-10-08T02:51:01;20.88;;;6.43;;
48207;SDS011;33997;53.278;9.708;2023-10-08T02:53:38;21.52;;;5.55;;
48207;SDS011;33997;53.278;9.708;2023-10-08T02:56:06;18.55;;;6.60;;
48207;SDS011;33997;53.278;9.708;2023-10-08T03:01:04;15.15;;;5.53;;
48207;SDS011;33997;53.278;9.708;2023-10-08T03:03:29;15.57;;;5.72;;
48207;SDS011;33997;53.278;9.708;2023-10-08T03:05:57;22.08;;;6.03;;
48207;SDS011;33997;53.278;9.708;2023-10-08T03:08:23;16.33;;;5.65;;
48207;SDS011;33997;53.278;9.708;2023-10-08T03:10:51;13.85;;;5.78;;
48207;SDS011;33997;53.278;9.708;2023-10-08T03:13:21;18.85;;;5.57;;
48207;SDS011;33997;53.278;9.708;2023-10-08T03:15:47;18.67;;;6.50;;
48207;SDS011;33997;53.278;9.708;2023-10-08T03:18:28;15.93;;;5.95;;
48207;SDS011;33997;53.278;9.708;2023-10-08T03:21:08;22.17;;;6.32;;
48207;SDS011;33997;53.278;9.708;2023-10-08T03:23:47;17.95;;;5.88;;
48207;SDS011;33997;53.278;9.708;2023-10-08T03:26:13;16.52;;;5.63;;
48207;SDS011;33997;53.278;9.708;2023-10-08T03:29:02;17.25;;;5.90;;
48207;SDS011;33997;53.278;9.708;2023-10-08T03:31:32;16.10;;;5.70;;
48207;SDS011;33997;53.278;9.708;2023-10-08T03:34:14;18.25;;;5.72;;
48207;SDS011;33997;53.278;9.708;2023-10-08T03:36:43;19.02;;;5.85;;
48207;SDS011;33997;53.278;9.708;2023-10-08T03:39:12;19.42;;;5.47;;
48207;SDS011;33997;53.278;9.708;2023-10-08T03:41:39;14.10;;;5.60;;
48207;SDS011;33997;53.278;9.708;2023-10-08T03:44:05;20.50;;;5.47;;
48207;SDS011;33997;53.278;9.708;2023-10-08T03:46:38;18.35;;;5.90;;
48207;SDS011;33997;53.278;9.708;2023-10-08T03:49:04;14.95;;;5.00;;
48207;SDS011;33997;53.278;9.708;2023-10-08T03:51:41;17.50;;;5.03;;
48207;SDS011;33997;53.278;9.708;2023-10-08T03:54:07;18.65;;;5.38;;
48207;SDS011;33997;53.278;9.708;2023-10-08T03:56:41;14.30;;;4.28;;
48207;SDS011;33997;53.278;9.708;2023-10-08T03:59:16;14.77;;;4.95;;
48207;SDS011;33997;53.278;9.708;2023-10-08T04:01:55;14.15;;;4.78;;
48207;SDS011;33997;53.278;9.708;2023-10-08T04:04:26;17.15;;;4.53;;
48207;SDS011;33997;53.278;9.708;2023-10-08T04:07:14;14.65;;;4.78;;
48207;SDS011;33997;53.278;9.708;2023-10-08T04:10:01;16.30;;;4.82;;
48207;SDS011;33997;53.278;9.708;2023-10-08T04:12:32;17.52;;;4.80;;
48207;SDS011;33997;53.278;9.708;2023-10-08T04:15:00;18.33;;;4.55;;
48207;SDS011;33997;53.278;9.708;2023-10-08T04:17:32;18.08;;;4.75;;
48207;SDS011;33997;53.278;9.708;2023-10-08T04:20:08;14.02;;;5.03;;
48207;SDS011;33997;53.278;9.708;2023-10-08T04:22:57;15.63;;;4.50;;
48207;SDS011;33997;53.278;9.708;2023-10-08T04:25:24;13.63;;;4.80;;
48207;SDS011;33997;53.278;9.708;2023-10-08T04:27:52;14.93;;;5.25;;
48207;SDS011;33997;53.278;9.708;2023-10-08T04:30:19;15.25;;;4.50;;
48207;SDS011;33997;53.278;9.708;2023-10-08T04:32:47;13.70;;;5.00;;
48207;SDS011;33997;53.278;9.708;2023-10-08T04:35:17;16.52;;;4.50;;
48207;SDS011;33997;53.278;9.708;2023-10-08T04:37:44;15.20;;;4.70;;
48207;SDS011;33997;53.278;9.708;2023-10-08T04:40:10;16.95;;;5.20;;
48207;SDS011;33997;53.278;9.708;2023-10-08T04:42:41;19.05;;;4.63;;
48207;SDS011;33997;53.278;9.708;2023-10-08T04:45:09;13.57;;;4.60;;
48207;SDS011;33997;53.278;9.708;2023-10-08T04:47:38;14.40;;;4.32;;
48207;SDS011;33997;53.278;9.708;2023-10-08T04:50:08;14.38;;;4.38;;
48207;SDS011;33997;53.278;9.708;2023-10-08T04:52:40;15.88;;;4.82;;
48207;SDS011;33997;53.278;9.708;2023-10-08T04:55:11;14.18;;;4.28;;
48207;SDS011;33997;53.278;9.708;2023-10-08T04:57:45;16.50;;;4.88;;
48207;SDS011;33997;53.278;9.708;2023-10-08T05:00:11;21.80;;;4.72;;
48207;SDS011;33997;53.278;9.708;2023-10-08T05:02:40;18.65;;;4.53;;
48207;SDS011;33997;53.278;9.708;2023-10-08T05:05:15;15.65;;;4.65;;
48207;SDS011;33997;53.278;9.708;2023-10-08T05:07:41;13.02;;;4.32;;
48207;SDS011;33997;53.278;9.708;2023-10-08T05:10:09;11.38;;;4.05;;
48207;SDS011;33997;53.278;9.708;2023-10-08T05:12:37;13.90;;;4.00;;
48207;SDS011;33997;53.278;9.708;2023-10-08T05:15:10;15.13;;;4.78;;
48207;SDS011;33997;53.278;9.708;2023-10-08T05:17:48;14.48;;;3.88;;
48207;SDS011;33997;53.278;9.708;2023-10-08T05:20:17;13.10;;;4.35;;
48207;SDS011;33997;53.278;9.708;2023-10-08T05:23:09;14.55;;;4.15;;
48207;SDS011;33997;53.278;9.708;2023-10-08T05:25:54;13.63;;;4.47;;
48207;SDS011;33997;53.278;9.708;2023-10-08T05:28:33;14.75;;;4.10;;
48207;SDS011;33997;53.278;9.708;2023-10-08T05:31:26;13.93;;;3.90;;
48207;SDS011;33997;53.278;9.708;2023-10-08T05:36:57;15.50;;;4.15;;
48207;SDS011;33997;53.278;9.708;2023-10-08T05:39:29;12.45;;;3.53;;
48207;SDS011;33997;53.278;9.708;2023-10-08T05:41:58;12.55;;;4.03;;
48207;SDS011;33997;53.278;9.708;2023-10-08T05:44:40;11.70;;;4.07;;
48207;SDS011;33997;53.278;9.708;2023-10-08T05:49:53;11.85;;;3.58;;
48207;SDS011;33997;53.278;9.708;2023-10-08T05:52:39;15.13;;;3.80;;
48207;SDS011;33997;53.278;9.708;2023-10-08T05:55:23;7.45;;;2.88;;
48207;SDS011;33997;53.278;9.708;2023-10-08T05:58:05;12.27;;;2.80;;
48207;SDS011;33997;53.278;9.708;2023-10-08T06:00:43;11.15;;;2.80;;
48207;SDS011;33997;53.278;9.708;2023-10-08T06:03:37;7.53;;;2.80;;
48207;SDS011;33997;53.278;9.708;2023-10-08T06:06:25;8.82;;;2.72;;
48207;SDS011;33997;53.278;9.708;2023-10-08T06:09:02;7.28;;;2.67;;
48207;SDS011;33997;53.278;9.708;2023-10-08T06:11:46;9.43;;;2.92;;
48207;SDS011;33997;53.278;9.708;2023-10-08T06:14:33;19.88;;;3.05;;
48207;SDS011;33997;53.278;9.708;2023-10-08T06:17:27;12.80;;;3.38;;
48207;SDS011;33997;53.278;9.708;2023-10-08T06:20:09;10.48;;;3.58;;
48207;SDS011;33997;53.278;9.708;2023-10-08T06:22:41;12.65;;;3.13;;
48207;SDS011;33997;53.278;9.708;2023-10-08T06:25:07;10.32;;;3.00;;
48207;SDS011;33997;53.278;9.708;2023-10-08T06:27:48;12.23;;;3.22;;
48207;SDS011;33997;53.278;9.708;2023-10-08T06:30:14;9.13;;;3.30;;
48207;SDS011;33997;53.278;9.708;2023-10-08T06:32:45;14.82;;;3.42;;
48207;SDS011;33997;53.278;9.708;2023-10-08T06:35:11;12.48;;;2.95;;
48207;SDS011;33997;53.278;9.708;2023-10-08T06:37:45;13.20;;;3.45;;
48207;SDS011;33997;53.278;9.708;2023-10-08T06:40:14;10.80;;;3.03;;
48207;SDS011;33997;53.278;9.708;2023-10-08T06:42:59;8.45;;;2.83;;
48207;SDS011;33997;53.278;9.708;2023-10-08T06:45:35;7.95;;;2.85;;
48207;SDS011;33997;53.278;9.708;2023-10-08T06:48:01;11.73;;;2.83;;
48207;SDS011;33997;53.278;9.708;2023-10-08T06:50:31;9.25;;;3.20;;
48207;SDS011;33997;53.278;9.708;2023-10-08T06:53:01;9.65;;;3.10;;
48207;SDS011;33997;53.278;9.708;2023-10-08T06:55:33;8.52;;;2.85;;
48207;SDS011;33997;53.278;9.708;2023-10-08T06:58:00;10.18;;;2.83;;
48207;SDS011;33997;53.278;9.708;2023-10-08T07:00:30;8.95;;;2.75;;
48207;SDS011;33997;53.278;9.708;2023-10-08T07:03:13;8.25;;;3.20;;
48207;SDS011;33997;53.278;9.708;2023-10-08T07:05:47;10.15;;;2.70;;
48207;SDS011;33997;53.278;9.708;2023-10-08T07:08:23;7.20;;;2.70;;
48207;SDS011;33997;53.278;9.708;2023-10-08T07:10:52;6.13;;;2.83;;
48207;SDS011;33997;53.278;9.708;2023-10-08T07:13:19;10.25;;;2.90;;
48207;SDS011;33997;53.278;9.708;2023-10-08T07:15:49;11.07;;;3.08;;
48207;SDS011;33997;53.278;9.708;2023-10-08T07:18:15;10.82;;;3.03;;
48207;SDS011;33997;53.278;9.708;2023-10-08T07:20:47;20.75;;;3.63;;
48207;SDS011;33997;53.278;9.708;2023-10-08T07:23:18;9.00;;;3.55;;
48207;SDS011;33997;53.278;9.708;2023-10-08T07:25:52;7.32;;;2.85;;
48207;SDS011;33997;53.278;9.708;2023-10-08T07:28:35;7.65;;;2.47;;
48207;SDS011;33997;53.278;9.708;2023-10-08T07:31:02;12.20;;;2.40;;
48207;SDS011;33997;53.278;9.708;2023-10-08T07:33:27;13.70;;;2.90;;
48207;SDS011;33997;53.278;9.708;2023-10-08T07:36:01;9.60;;;2.40;;
48207;SDS011;33997;53.278;9.708;2023-10-08T07:38:37;12.65;;;2.30;;
48207;SDS011;33997;53.278;9.708;2023-10-08T07:41:04;9.55;;;1.92;;
48207;SDS011;33997;53.278;9.708;2023-10-08T07:43:30;10.40;;;2.10;;
48207;SDS011;33997;53.278;9.708;2023-10-08T07:45:57;6.30;;;1.80;;
48207;SDS011;33997;53.278;9.708;2023-10-08T07:48:23;8.30;;;1.95;;
48207;SDS011;33997;53.278;9.708;2023-10-08T07:50:54;8.05;;;2.15;;
48207;SDS011;33997;53.278;9.708;2023-10-08T07:53:21;9.20;;;2.08;;
48207;SDS011;33997;53.278;9.708;2023-10-08T07:55:49;9.57;;;2.35;;
48207;SDS011;33997;53.278;9.708;2023-10-08T07:58:16;9.90;;;2.05;;
48207;SDS011;33997;53.278;9.708;2023-10-08T08:00:43;9.23;;;2.03;;
48207;SDS011;33997;53.278;9.708;2023-10-08T08:03:16;6.63;;;2.15;;
48207;SDS011;33997;53.278;9.708;2023-10-08T08:05:43;11.18;;;2.17;;
48207;SDS011;33997;53.278;9.708;2023-10-08T08:08:09;12.02;;;2.28;;
48207;SDS011;33997;53.278;9.708;2023-10-08T08:10:39;5.90;;;1.93;;
48207;SDS011;33997;53.278;9.708;2023-10-08T08:13:07;7.85;;;2.40;;
48207;SDS011;33997;53.278;9.708;2023-10-08T08:15:33;11.25;;;2.13;;
48207;SDS011;33997;53.278;9.708;2023-10-08T08:20:31;7.53;;;1.40;;
48207;SDS011;33997;53.278;9.708;2023-10-08T08:23:03;8.90;;;1.67;;
48207;SDS011;33997;53.278;9.708;2023-10-08T08:25:38;6.03;;;1.25;;
48207;SDS011;33997;53.278;9.708;2023-10-08T08:28:14;9.32;;;1.88;;
48207;SDS011;33997;53.278;9.708;2023-10-08T08:33:11;5.85;;;1.20;;
48207;SDS011;33997;53.278;9.708;2023-10-08T08:35:38;8.27;;;1.40;;
48207;SDS011;33997;53.278;9.708;2023-10-08T08:38:04;10.95;;;1.48;;
48207;SDS011;33997;53.278;9.708;2023-10-08T08:40:31;6.45;;;1.17;;
48207;SDS011;33997;53.278;9.708;2023-10-08T08:42:57;8.48;;;1.20;;
48207;SDS011;33997;53.278;9.708;2023-10-08T08:45:27;2.97;;;0.90;;
48207;SDS011;33997;53.278;9.708;2023-10-08T08:47:58;4.47;;;1.00;;
48207;SDS011;33997;53.278;9.708;2023-10-08T08:50:24;6.53;;;1.20;;
48207;SDS011;33997;53.278;9.708;2023-10-08T08:52:51;8.02;;;1.15;;
48207;SDS011;33997;53.278;9.708;2023-10-08T08:55:17;7.72;;;1.05;;
48207;SDS011;33997;53.278;9.708;2023-10-08T08:57:44;8.10;;;1.00;;
48207;SDS011;33997;53.278;9.708;2023-10-08T09:00:12;5.25;;;1.20;;
48207;SDS011;33997;53.278;9.708;2023-10-08T09:02:39;5.20;;;1.02;;
48207;SDS011;33997;53.278;9.708;2023-10-08T09:05:05;4.53;;;0.88;;
48207;SDS011;33997;53.278;9.708;2023-10-08T09:10:31;5.00;;;0.98;;
48207;SDS011;33997;53.278;9.708;2023-10-08T09:13:02;1.73;;;0.75;;
48207;SDS011;33997;53.278;9.708;2023-10-08T09:15:28;3.63;;;0.80;;
48207;SDS011;33997;53.278;9.708;2023-10-08T09:17:54;5.00;;;0.80;;
48207;SDS011;33997;53.278;9.708;2023-10-08T09:20:21;1.83;;;0.60;;
48207;SDS011;33997;53.278;9.708;2023-10-08T09:23:05;1.30;;;0.60;;
48207;SDS011;33997;53.278;9.708;2023-10-08T09:25:36;6.28;;;1.05;;
48207;SDS011;33997;53.278;9.708;2023-10-08T09:28:02;1.63;;;0.50;;
48207;SDS011;33997;53.278;9.708;2023-10-08T09:30:32;3.90;;;0.93;;
48207;SDS011;33997;53.278;9.708;2023-10-08T09:33:05;4.03;;;0.60;;
48207;SDS011;33997;53.278;9.708;2023-10-08T09:35:32;5.80;;;0.65;;
48207;SDS011;33997;53.278;9.708;2023-10-08T09:38:05;2.15;;;0.77;;
48207;SDS011;33997;53.278;9.708;2023-10-08T09:40:38;5.00;;;0.85;;
48207;SDS011;33997;53.278;9.708;2023-10-08T09:43:06;2.55;;;0.70;;
48207;SDS011;33997;53.278;9.708;2023-10-08T09:45:33;3.03;;;0.50;;
48207;SDS011;33997;53.278;9.708;2023-10-08T09:48:00;2.15;;;0.45;;
48207;SDS011;33997;53.278;9.708;2023-10-08T09:50:29;1.73;;;0.50;;
48207;SDS011;33997;53.278;9.708;2023-10-08T09:55:33;3.55;;;0.93;;
48207;SDS011;33997;53.278;9.708;2023-10-08T09:57:58;5.25;;;0.68;;
48207;SDS011;33997;53.278;9.708;2023-10-08T10:00:24;3.78;;;0.98;;
48207;SDS011;33997;53.278;9.708;2023-10-08T10:02:56;1.77;;;0.70;;
48207;SDS011;33997;53.278;9.708;2023-10-08T10:05:30;3.97;;;1.20;;
48207;SDS011;33997;53.278;9.708;2023-10-08T10:07:57;5.53;;;1.00;;
48207;SDS011;33997;53.278;9.708;2023-10-08T10:10:30;5.25;;;1.15;;
48207;SDS011;33997;53.278;9.708;2023-10-08T10:13:09;1.98;;;0.80;;
48207;SDS011;33997;53.278;9.708;2023-10-08T10:15:38;3.75;;;0.70;;
48207;SDS011;33997;53.278;9.708;2023-10-08T10:18:12;3.85;;;0.65;;
48207;SDS011;33997;53.278;9.708;2023-10-08T10:20:45;2.13;;;0.80;;
48207;SDS011;33997;53.278;9.708;2023-10-08T10:31:45;4.22;;;0.80;;
48207;SDS011;33997;53.278;9.708;2023-10-08T10:34:22;2.65;;;0.77;;
48207;SDS011;33997;53.278;9.708;2023-10-08T10:36:52;2.80;;;0.95;;
48207;SDS011;33997;53.278;9.708;2023-10-08T10:39:22;3.60;;;0.90;;
48207;SDS011;33997;53.278;9.708;2023-10-08T10:41:54;4.03;;;0.93;;
48207;SDS011;33997;53.278;9.708;2023-10-08T10:44:26;5.28;;;1.05;;
48207;SDS011;33997;53.278;9.708;2023-10-08T10:46:54;3.42;;;0.75;;
48207;SDS011;33997;53.278;9.708;2023-10-08T10:49:39;4.45;;;0.88;;
48207;SDS011;33997;53.278;9.708;2023-10-08T10:52:13;5.22;;;1.05;;
48207;SDS011;33997;53.278;9.708;2023-10-08T10:54:43;3.03;;;0.87;;
48207;SDS011;33997;53.278;9.708;2023-10-08T10:57:23;2.45;;;0.73;;
48207;SDS011;33997;53.278;9.708;2023-10-08T11:00:03;6.15;;;1.15;;
48207;SDS011;33997;53.278;9.708;2023-10-08T11:03:04;2.75;;;0.65;;
48207;SDS011;33997;53.278;9.708;2023-10-08T11:05:43;3.10;;;0.70;;
48207;SDS011;33997;53.278;9.708;2023-10-08T11:08:13;2.13;;;0.60;;
48207;SDS011;33997;53.278;9.708;2023-10-08T11:10:41;4.93;;;0.70;;
48207;SDS011;33997;53.278;9.708;2023-10-08T11:13:20;3.13;;;0.63;;
48207;SDS011;33997;53.278;9.708;2023-10-08T11:15:47;3.00;;;0.77;;
48207;SDS011;33997;53.278;9.708;2023-10-08T11:18:17;4.60;;;0.98;;
48207;SDS011;33997;53.278;9.708;2023-10-08T11:20:48;3.53;;;0.73;;
48207;SDS011;33997;53.278;9.708;2023-10-08T11:23:31;3.35;;;0.63;;
48207;SDS011;33997;53.278;9.708;2023-10-08T11:25:59;2.08;;;0.60;;
48207;SDS011;33997;53.278;9.708;2023-10-08T11:28:27;2.15;;;0.88;;
48207;SDS011;33997;53.278;9.708;2023-10-08T11:30:53;3.03;;;0.52;;
48207;SDS011;33997;53.278;9.708;2023-10-08T11:33:22;4.57;;;0.60;;
48207;SDS011;33997;53.278;9.708;2023-10-08T11:36:03;2.55;;;0.52;;
48207;SDS011;33997;53.278;9.708;2023-10-08T11:38:43;4.00;;;0.88;;
48207;SDS011;33997;53.278;9.708;2023-10-08T11:41:12;1.60;;;0.57;;
48207;SDS011;33997;53.278;9.708;2023-10-08T11:43:51;4.10;;;0.57;;
48207;SDS011;33997;53.278;9.708;2023-10-08T11:48:53;2.22;;;0.80;;
48207;SDS011;33997;53.278;9.708;2023-10-08T11:51:22;1.02;;;0.45;;
48207;SDS011;33997;53.278;9.708;2023-10-08T11:53:49;4.65;;;2.53;;
48207;SDS011;33997;53.278;9.708;2023-10-08T11:56:16;8.75;;;6.40;;
48207;SDS011;33997;53.278;9.708;2023-10-08T11:58:43;4.20;;;0.75;;
48207;SDS011;33997;53.278;9.708;2023-10-08T12:01:11;1.23;;;0.70;;
48207;SDS011;33997;53.278;9.708;2023-10-08T12:03:40;4.07;;;2.33;;
48207;SDS011;33997;53.278;9.708;2023-10-08T12:06:08;3.40;;;0.88;;
48207;SDS011;33997;53.278;9.708;2023-10-08T12:08:35;3.92;;;1.00;;
48207;SDS011;33997;53.278;9.708;2023-10-08T12:11:04;2.83;;;0.65;;
48207;SDS011;33997;53.278;9.708;2023-10-08T12:13:36;1.98;;;0.60;;
48207;SDS011;33997;53.278;9.708;2023-10-08T12:16:02;2.88;;;0.80;;
48207;SDS011;33997;53.278;9.708;2023-10-08T12:18:31;4.20;;;0.77;;
48207;SDS011;33997;53.278;9.708;2023-10-08T12:21:04;2.58;;;0.73;;
48207;SDS011;33997;53.278;9.708;2023-10-08T12:23:30;4.72;;;0.90;;
48207;SDS011;33997;53.278;9.708;2023-10-08T12:25:58;2.38;;;0.98;;
48207;SDS011;33997;53.278;9.708;2023-10-08T12:28:25;2.42;;;1.35;;
48207;SDS011;33997;53.278;9.708;2023-10-08T12:30:52;3.83;;;0.65;;
48207;SDS011;33997;53.278;9.708;2023-10-08T12:33:21;3.78;;;0.80;;
48207;SDS011;33997;53.278;9.708;2023-10-08T12:35:51;3.30;;;0.65;;
48207;SDS011;33997;53.278;9.708;2023-10-08T12:38:23;2.80;;;1.05;;
48207;SDS011;33997;53.278;9.708;2023-10-08T12:40:52;3.58;;;0.75;;
48207;SDS011;33997;53.278;9.708;2023-10-08T12:43:18;2.05;;;0.70;;
48207;SDS011;33997;53.278;9.708;2023-10-08T12:45:48;2.72;;;0.93;;
48207;SDS011;33997;53.278;9.708;2023-10-08T12:48:24;2.67;;;0.90;;
48207;SDS011;33997;53.278;9.708;2023-10-08T12:50:51;1.63;;;0.43;;
48207;SDS011;33997;53.278;9.708;2023-10-08T12:53:24;3.03;;;0.70;;
48207;SDS011;33997;53.278;9.708;2023-10-08T12:58:37;3.83;;;0.95;;
48207;SDS011;33997;53.278;9.708;2023-10-08T13:01:12;2.75;;;0.85;;
48207;SDS011;33997;53.278;9.708;2023-10-08T13:03:39;2.22;;;0.55;;
48207;SDS011;33997;53.278;9.708;2023-10-08T13:06:06;2.00;;;0.57;;
48207;SDS011;33997;53.278;9.708;2023-10-08T13:08:46;2.40;;;0.70;;
48207;SDS011;33997;53.278;9.708;2023-10-08T13:11:12;1.80;;;0.60;;
48207;SDS011;33997;53.278;9.708;2023-10-08T13:13:38;2.03;;;0.70;;
48207;SDS011;33997;53.278;9.708;2023-10-08T13:16:03;2.42;;;0.73;;
48207;SDS011;33997;53.278;9.708;2023-10-08T13:18:32;1.67;;;0.35;;
48207;SDS011;33997;53.278;9.708;2023-10-08T13:20:58;6.40;;;0.70;;
48207;SDS011;33997;53.278;9.708;2023-10-08T13:23:25;2.22;;;0.75;;
48207;SDS011;33997;53.278;9.708;2023-10-08T13:25:51;2.58;;;0.82;;
48207;SDS011;33997;53.278;9.708;2023-10-08T13:28:22;3.10;;;0.75;;
48207;SDS011;33997;53.278;9.708;2023-10-08T13:30:50;4.65;;;0.75;;
48207;SDS011;33997;53.278;9.708;2023-10-08T13:33:17;1.95;;;0.65;;
48207;SDS011;33997;53.278;9.708;2023-10-08T13:35:47;1.17;;;0.63;;
48207;SDS011;33997;53.278;9.708;2023-10-08T13:38:15;3.97;;;0.80;;
48207;SDS011;33997;53.278;9.708;2023-10-08T13:40:47;4.00;;;0.65;;
48207;SDS011;33997;53.278;9.708;2023-10-08T13:43:33;1.75;;;0.68;;
48207;SDS011;33997;53.278;9.708;2023-10-08T13:46:00;2.60;;;0.55;;
48207;SDS011;33997;53.278;9.708;2023-10-08T13:48:31;3.38;;;0.80;;
48207;SDS011;33997;53.278;9.708;2023-10-08T13:50:58;2.22;;;0.73;;
48207;SDS011;33997;53.278;9.708;2023-10-08T13:53:25;0.90;;;0.45;;
48207;SDS011;33997;53.278;9.708;2023-10-08T13:55:54;6.15;;;1.00;;
48207;SDS011;33997;53.278;9.708;2023-10-08T13:58:32;5.03;;;1.13;;
48207;SDS011;33997;53.278;9.708;2023-10-08T14:01:05;4.57;;;0.65;;
48207;SDS011;33997;53.278;9.708;2023-10-08T14:03:43;3.00;;;0.82;;
48207;SDS011;33997;53.278;9.708;2023-10-08T14:06:10;3.30;;;0.77;;
48207;SDS011;33997;53.278;9.708;2023-10-08T14:08:35;2.28;;;0.63;;
48207;SDS011;33997;53.278;9.708;2023-10-08T14:11:01;2.08;;;0.75;;
48207;SDS011;33997;53.278;9.708;2023-10-08T14:13:30;3.97;;;0.60;;
48207;SDS011;33997;53.278;9.708;2023-10-08T14:16:00;2.67;;;0.65;;
48207;SDS011;33997;53.278;9.708;2023-10-08T14:18:33;2.65;;;0.80;;
48207;SDS011;33997;53.278;9.708;2023-10-08T14:21:05;3.03;;;0.50;;
48207;SDS011;33997;53.278;9.708;2023-10-08T14:23:35;4.22;;;0.70;;
48207;SDS011;33997;53.278;9.708;2023-10-08T14:26:04;3.08;;;0.70;;
48207;SDS011;33997;53.278;9.708;2023-10-08T14:28:33;3.65;;;0.82;;
48207;SDS011;33997;53.278;9.708;2023-10-08T14:31:08;2.45;;;0.50;;
48207;SDS011;33997;53.278;9.708;2023-10-08T14:33:40;5.65;;;0.80;;
48207;SDS011;33997;53.278;9.708;2023-10-08T14:36:23;1.92;;;0.57;;
48207;SDS011;33997;53.278;9.708;2023-10-08T14:39:08;3.40;;;0.88;;
48207;SDS011;33997;53.278;9.708;2023-10-08T14:41:52;3.33;;;0.60;;
48207;SDS011;33997;53.278;9.708;2023-10-08T14:44:36;1.33;;;0.55;;
48207;SDS011;33997;53.278;9.708;2023-10-08T14:47:02;2.13;;;0.50;;
48207;SDS011;33997;53.278;9.708;2023-10-08T14:49:29;6.32;;;0.75;;
48207;SDS011;33997;53.278;9.708;2023-10-08T14:51:55;2.63;;;0.93;;
48207;SDS011;33997;53.278;9.708;2023-10-08T14:54:20;1.48;;;0.45;;
48207;SDS011;33997;53.278;9.708;2023-10-08T14:56:46;3.90;;;0.50;;
48207;SDS011;33997;53.278;9.708;2023-10-08T14:59:11;3.50;;;0.63;;
48207;SDS011;33997;53.278;9.708;2023-10-08T15:01:37;4.85;;;0.68;;
48207;SDS011;33997;53.278;9.708;2023-10-08T15:04:04;2.05;;;0.88;;
48207;SDS011;33997;53.278;9.708;2023-10-08T15:06:32;2.58;;;0.60;;
48207;SDS011;33997;53.278;9.708;2023-10-08T15:08:58;4.22;;;0.77;;
48207;SDS011;33997;53.278;9.708;2023-10-08T15:11:24;3.63;;;0.73;;
48207;SDS011;33997;53.278;9.708;2023-10-08T15:13:55;1.77;;;0.50;;
48207;SDS011;33997;53.278;9.708;2023-10-08T15:16:21;1.95;;;0.75;;
48207;SDS011;33997;53.278;9.708;2023-10-08T15:18:48;3.03;;;0.75;;
48207;SDS011;33997;53.278;9.708;2023-10-08T15:21:16;1.88;;;0.55;;
48207;SDS011;33997;53.278;9.708;2023-10-08T15:23:43;2.00;;;0.70;;
48207;SDS011;33997;53.278;9.708;2023-10-08T15:26:09;4.32;;;0.73;;
48207;SDS011;33997;53.278;9.708;2023-10-08T15:28:37;4.07;;;0.70;;
48207;SDS011;33997;53.278;9.708;2023-10-08T15:31:03;2.33;;;0.65;;
48207;SDS011;33997;53.278;9.708;2023-10-08T15:33:28;3.35;;;0.70;;
48207;SDS011;33997;53.278;9.708;2023-10-08T15:35:54;1.63;;;0.55;;
48207;SDS011;33997;53.278;9.708;2023-10-08T15:38:19;2.95;;;0.70;;